Time;durP1;ratioP1;P1;durP2;ratioP2;P2;SDS_P1;SDS_P2;PMS_P1;PMS_P2;Temp;Humidity;BMP_temperature;BMP_pressure;BME280_temperature;BME280_humidity;BME280_pressure;Samples;Min_cycle;Max_cycle;Signal;HPM_P1;HPM_P2
2021/11/13 17:22:42;;;;;;;6.22;4.05;;;18.00;80.00;;;17.85;53.30;94579.84;6142990;19;20290;-59
2021/11/13 17:24:46;;;;;;;6.72;4.00;;;18.10;77.80;;;18.71;50.86;94582.16;6142001;19;20029;-58
2021/11/13 17:26:47;;;;;;;4.28;3.88;;;18.00;77.30;;;19.35;48.87;94577.03;6144644;19;20018;-59
2021/11/13 17:28:49;;;;;;;5.35;3.85;;;18.00;77.10;;;19.88;47.81;94573.19;6141845;19;20018;-57
2021/11/13 17:30:50;;;;;;;3.83;3.13;;;18.00;77.30;;;20.27;46.73;94564.00;6140776;19;20357;-57
2021/11/13 17:32:53;;;;;;;3.65;3.35;;;18.10;77.90;;;20.60;45.92;94561.53;6139783;19;20026;-57
2021/11/13 17:34:54;;;;;;;;;;;18.10;77.40;;;20.84;45.12;94560.94;6135696;19;20026;-55
2021/11/13 17:36:55;;;;;;;3.75;3.45;;;18.10;76.90;;;21.02;44.60;94559.69;6141254;19;19922;-56
2021/11/13 17:38:56;;;;;;;4.32;3.30;;;18.10;76.60;;;21.16;44.33;94556.72;6140258;19;20605;-58
2021/11/13 17:40:58;;;;;;;3.58;3.28;;;18.10;76.40;;;21.28;43.69;94554.13;6138015;19;20014;-57
2021/11/13 17:43:00;;;;;;;3.97;3.28;;;18.10;76.40;;;21.38;43.46;94561.84;6094360;19;20097;-58
2021/11/13 17:45:03;;;;;;;3.63;3.33;;;18.10;76.20;;;21.46;43.31;94555.56;6102064;19;20010;-58
2021/11/13 17:47:05;;;;;;;3.55;3.25;;;18.10;76.10;;;21.53;42.69;94565.88;6100925;19;22369;-58
2021/11/13 17:49:10;;;;;;;3.78;3.47;;;18.10;76.00;;;21.57;42.77;94561.38;6104177;19;20018;-59
2021/11/13 17:51:11;;;;;;;6.05;3.25;;;18.10;75.90;;;21.62;42.65;94563.09;6105282;19;20105;-58
2021/11/13 17:53:13;;;;;;;3.13;2.83;;;18.00;75.60;;;21.65;42.47;94563.22;6077445;19;20031;-56
2021/11/13 17:55:14;;;;;;;3.07;2.87;;;18.10;75.70;;;21.66;42.18;94558.59;6099362;19;20074;-61
2021/11/13 17:57:16;;;;;;;3.47;3.17;;;18.10;75.80;;;21.69;42.08;94560.66;6109035;19;20687;-59
2021/11/13 17:59:17;;;;;;;3.13;2.90;;;18.10;75.70;;;21.69;42.05;94564.16;6101912;19;20927;-60
2021/11/13 18:01:20;;;;;;;3.05;2.78;;;18.10;75.70;;;21.71;42.11;94563.81;6101175;19;20042;-58
2021/11/13 18:03:23;;;;;;;;;;;18.10;75.60;;;21.71;42.21;94559.19;6100985;19;20389;-58
2021/11/13 18:05:25;;;;;;;3.22;2.95;;;18.00;75.50;;;21.72;42.01;94566.19;6085353;19;19919;-60
2021/11/13 18:07:26;;;;;;;2.80;2.60;;;18.10;75.70;;;21.74;42.00;94555.00;6066926;19;20007;-59
2021/11/13 18:09:27;;;;;;;2.95;2.70;;;18.10;75.70;;;21.73;41.81;94551.50;6089666;19;20259;-60
2021/11/13 18:11:28;;;;;;;3.38;3.08;;;18.00;75.40;;;21.74;41.92;94555.00;6069947;19;20014;-60
2021/11/13 18:13:29;;;;;;;3.00;2.80;;;18.00;75.40;;;21.75;41.84;94551.97;6081929;19;20039;-60
2021/11/13 18:15:31;;;;;;;3.20;2.97;;;18.00;75.50;;;21.75;41.69;94551.16;6059579;19;20006;-61
2021/11/13 18:17:32;;;;;;;2.90;2.65;;;18.10;75.50;;;21.78;41.39;94548.56;6073922;19;20002;-61
2021/11/13 18:19:33;;;;;;;2.60;2.40;;;18.10;75.60;;;21.77;41.44;94554.34;6056847;19;20484;-61
2021/11/13 18:21:34;;;;;;;2.58;2.38;;;18.00;75.50;;;21.77;41.37;94544.28;6089897;19;20002;-60
2021/11/13 18:23:37;;;;;;;3.40;3.10;;;18.10;75.70;;;21.78;41.60;94543.16;6069504;19;20239;-60
2021/11/13 18:25:40;;;;;;;2.67;2.47;;;18.00;75.70;;;21.78;41.86;94540.44;6067311;19;20010;-60
2021/11/13 18:27:45;;;;;;;2.40;2.20;;;18.00;75.70;;;21.79;41.68;94542.03;6064039;19;21214;-60
2021/11/13 18:29:45;;;;;;;2.65;2.45;;;18.10;75.80;;;21.78;41.62;94540.44;6051678;19;21308;-60
2021/11/13 18:31:46;;;;;;;3.47;2.40;;;18.00;75.70;;;21.79;41.88;94541.22;6059229;19;19994;-61
2021/11/13 18:33:47;;;;;;;5.20;2.72;;;18.10;75.80;;;21.79;41.63;94542.03;6034393;19;20097;-61
2021/11/13 18:35:49;;;;;;;3.40;2.40;;;18.10;75.90;;;21.79;41.33;94538.53;6047463;19;20788;-61
2021/11/13 18:37:50;;;;;;;3.17;2.58;;;18.00;75.70;;;21.80;41.32;94538.19;6007889;19;20017;-62
2021/11/13 18:39:51;;;;;;;2.60;2.40;;;18.10;75.90;;;21.79;41.26;94533.88;6050746;19;21398;-60
2021/11/13 18:41:51;;;;;;;3.17;2.88;;;18.10;75.90;;;21.80;41.72;94543.59;6029311;19;20014;-61
2021/11/13 18:43:52;;;;;;;2.60;2.22;;;18.00;75.80;;;21.80;41.28;94537.38;6032024;19;21178;-62
2021/11/13 18:45:54;;;;;;;3.70;2.50;;;18.10;76.10;;;21.80;41.62;94545.53;6043184;19;20010;-61
2021/11/13 18:47:55;;;;;;;6.20;2.10;;;18.00;76.30;;;21.79;41.41;94538.53;6055348;19;20098;-61
2021/11/13 18:49:56;;;;;;;5.93;2.65;;;18.10;76.60;;;21.79;41.49;94543.94;5998875;19;20022;-61
2021/11/13 18:51:58;;;;;;;5.22;2.50;;;18.00;76.80;;;21.81;41.89;94533.56;6016598;19;22316;-61
2021/11/13 18:53:59;;;;;;;3.85;2.58;;;18.10;76.90;;;21.81;41.99;94536.25;6013762;19;20042;-61
2021/11/13 18:56:01;;;;;;;3.17;2.83;;;18.10;76.90;;;21.82;41.68;94540.56;6012584;19;20044;-61
2021/11/13 18:58:02;;;;;;;3.17;2.05;;;18.10;77.00;;;21.82;41.80;94537.84;6027978;19;20018;-61
2021/11/13 19:00:26;;;;;;;6.32;2.63;;;18.10;77.00;;;21.81;41.47;94539.78;6043637;19;20909;-61
2021/11/13 19:02:26;;;;;;;3.92;2.35;;;18.10;77.10;;;21.81;41.53;94537.06;6055630;19;20010;-61
2021/11/13 19:04:27;;;;;;;4.85;2.40;;;18.00;77.10;;;21.81;41.57;94534.34;6028610;19;20017;-61
2021/11/13 19:06:28;;;;;;;4.05;3.08;;;18.10;77.20;;;21.82;41.53;94535.13;6029076;19;20029;-61
2021/11/13 19:08:30;;;;;;;4.68;2.95;;;18.10;77.30;;;21.82;41.95;94535.94;6008837;19;20014;-58
2021/11/13 19:10:31;;;;;;;5.70;3.38;;;18.10;77.20;;;21.82;41.72;94538.63;6045158;19;20660;-58
2021/11/13 19:12:32;;;;;;;3.67;2.92;;;18.10;77.30;;;21.82;41.77;94540.56;6020958;19;20019;-59
2021/11/13 19:14:34;;;;;;;5.93;3.30;;;18.10;77.40;;;21.81;41.97;94538.97;6023167;19;20010;-58
2021/11/13 19:16:35;;;;;;;4.15;3.17;;;18.00;77.80;;;21.81;41.60;94541.69;6032584;19;20436;-59
2021/11/13 19:18:38;;;;;;;4.22;3.28;;;18.10;77.90;;;21.79;42.18;94538.53;6061480;19;20580;-57
2021/11/13 19:20:40;;;;;;;3.95;3.65;;;18.00;77.90;;;21.79;41.87;94541.22;6036193;19;20570;-58
2021/11/13 19:22:41;;;;;;;4.22;3.92;;;18.00;77.90;;;21.79;41.84;94541.22;6029388;19;20563;-59
2021/11/13 19:24:43;;;;;;;4.63;3.50;;;18.00;77.90;;;21.77;41.93;94533.44;6041844;19;20051;-58
2021/11/13 19:26:45;;;;;;;4.53;3.53;;;18.00;78.00;;;21.78;42.13;94531.50;6041771;19;21544;-59
2021/11/13 19:28:47;;;;;;;5.40;4.18;;;18.00;78.00;;;21.78;41.69;94535.00;6021857;19;20861;-57
2021/11/13 19:30:48;;;;;;;13.90;4.55;;;18.10;78.20;;;21.79;42.03;94535.81;6031858;19;20031;-57
2021/11/13 19:32:50;;;;;;;4.15;3.85;;;18.00;78.30;;;21.78;42.18;94535.00;5989350;19;20014;-57
2021/11/13 19:34:51;;;;;;;4.82;4.10;;;18.00;78.50;;;21.79;42.28;94541.22;6028734;19;20044;-59
2021/11/13 19:36:53;;;;;;;3.85;3.45;;;18.00;78.70;;;21.79;41.85;94547.44;6042027;19;20018;-57
2021/11/13 19:38:54;;;;;;;5.60;4.28;;;18.00;78.90;;;21.79;41.91;94539.31;6049620;19;20050;-58
2021/11/13 19:40:55;;;;;;;3.83;3.47;;;18.00;78.90;;;21.79;42.25;94542.03;6053995;19;20018;-58
2021/11/13 19:42:56;;;;;;;4.85;4.03;;;18.00;78.70;;;21.79;42.10;94542.03;6036807;19;20014;-62
2021/11/13 19:44:57;;;;;;;7.85;4.25;;;18.00;78.60;;;21.79;42.15;94543.94;6053563;19;20065;-63
2021/11/13 19:46:58;;;;;;;4.13;3.70;;;18.00;78.60;;;21.79;42.25;94543.94;6062484;19;20014;-62
2021/11/13 19:48:59;;;;;;;3.75;3.42;;;18.00;78.60;;;21.80;42.03;94542.81;6050276;19;20778;-62
2021/11/13 19:51:00;;;;;;;5.50;3.70;;;18.00;78.80;;;21.79;42.18;94542.03;6061967;19;21157;-62
2021/11/13 19:53:04;;;;;;;4.45;3.47;;;18.00;78.70;;;21.80;41.75;94537.38;6057227;19;20145;-63
2021/11/13 19:55:07;;;;;;;3.70;3.40;;;18.00;78.80;;;21.80;41.89;94540.91;6050319;19;20030;-62
2021/11/13 19:57:09;;;;;;;5.28;4.40;;;18.10;78.80;;;21.79;42.14;94536.59;6077940;19;20014;-62
2021/11/13 19:59:10;;;;;;;4.45;3.92;;;18.00;78.80;;;21.80;41.93;94540.09;6071335;19;20470;-63
2021/11/13 20:01:10;;;;;;;4.72;3.80;;;18.00;79.00;;;21.80;42.03;94529.25;6059894;19;20006;-62
2021/11/13 20:03:13;;;;;;;4.22;3.83;;;18.10;79.00;;;21.80;42.15;94538.19;6053873;19;20018;-62
2021/11/13 20:05:15;;;;;;;;;;;18.00;79.00;;;21.80;42.00;94538.19;6056186;19;20039;-62
2021/11/13 20:07:15;;;;;;;6.38;3.90;;;18.00;78.90;;;21.79;41.90;94539.31;6045208;19;20003;-62
2021/11/13 20:09:17;;;;;;;6.55;3.63;;;18.10;79.00;;;21.80;42.23;94534.69;6079085;19;21794;-62
2021/11/13 20:11:18;;;;;;;3.35;3.15;;;18.10;79.10;;;21.80;42.35;94542.81;6049865;19;20009;-63
2021/11/13 20:13:22;;;;;;;4.22;3.10;;;18.00;79.00;;;21.81;42.30;94544.41;6044845;19;20018;-63
2021/11/13 20:15:23;;;;;;;9.65;4.07;;;18.00;79.00;;;21.81;41.96;94538.97;6056533;19;20361;-62
2021/11/13 20:17:24;;;;;;;3.92;3.63;;;18.00;79.00;;;21.82;41.90;94540.56;6064006;19;20014;-63
2021/11/13 20:19:26;;;;;;;4.40;3.95;;;18.00;79.00;;;21.81;41.82;94538.97;6043533;19;21236;-63
2021/11/13 20:21:28;;;;;;;4.18;3.22;;;18.00;79.00;;;21.80;42.25;94540.91;6060593;19;20015;-63
2021/11/13 20:23:30;;;;;;;4.07;3.75;;;18.10;79.20;;;21.81;42.01;94545.19;6041168;19;20369;-62
2021/11/13 20:25:31;;;;;;;4.57;3.35;;;18.00;79.00;;;21.80;41.74;94537.38;6027161;19;20018;-62
2021/11/13 20:27:34;;;;;;;4.15;3.75;;;18.00;79.10;;;21.81;41.87;94542.47;6037840;19;20014;-63
2021/11/13 20:29:36;;;;;;;4.78;3.72;;;18.00;79.00;;;21.80;42.02;94535.47;6058610;19;20015;-63
2021/11/13 20:31:37;;;;;;;3.28;2.97;;;18.00;79.20;;;21.80;41.80;94534.69;6057627;19;20011;-62
2021/11/13 20:33:39;;;;;;;3.42;3.13;;;18.00;79.00;;;21.80;42.20;94538.19;6040597;19;20029;-62
2021/11/13 20:35:41;;;;;;;4.03;3.70;;;18.00;79.10;;;21.80;41.83;94537.38;6069194;19;20478;-62
2021/11/13 20:37:44;;;;;;;3.60;3.30;;;18.00;79.10;;;21.80;42.09;94542.81;6035409;19;20010;-62
2021/11/13 20:39:51;;;;;;;3.50;3.20;;;18.00;79.20;;;21.79;42.06;94547.44;6041603;19;20010;-62
2021/11/13 20:42:05;;;;;;;3.03;2.83;;;18.00;79.30;;;21.79;42.24;94544.75;6039263;19;20062;-63
2021/11/13 20:44:07;;;;;;;3.33;3.03;;;18.00;79.20;;;21.79;41.78;94552.09;6045665;19;20013;-63
2021/11/13 20:46:08;;;;;;;4.68;3.33;;;18.00;79.20;;;21.78;41.74;94545.06;6045586;19;20006;-62
2021/11/13 20:48:09;;;;;;;3.20;2.90;;;18.00;79.10;;;21.78;41.98;94547.78;6051560;19;20125;-63
2021/11/13 20:50:17;;;;;;;4.82;3.08;;;18.00;79.00;;;21.79;41.73;94541.22;6060112;19;20055;-63
2021/11/13 20:52:22;;;;;;;3.33;2.95;;;18.00;79.00;;;21.77;42.18;94547.00;6076719;19;20014;-62
2021/11/13 20:54:23;;;;;;;4.40;3.17;;;18.00;79.20;;;21.77;42.00;94546.19;6076400;19;20426;-63
2021/11/13 20:56:24;;;;;;;4.05;3.65;;;18.00;79.20;;;21.78;42.31;94550.50;6070963;19;20014;-62
2021/11/13 20:58:26;;;;;;;3.03;2.80;;;18.00;79.20;;;21.77;42.15;94538.84;6055927;19;21547;-61
2021/11/13 21:00:32;;;;;;;3.25;2.95;;;18.00;79.10;;;21.77;42.04;94540.78;6067322;19;20340;-62
2021/11/13 21:02:33;;;;;;;3.35;3.08;;;18.00;79.10;;;21.78;42.30;94536.94;6073749;19;20087;-64
2021/11/13 21:04:35;;;;;;;3.53;3.22;;;18.00;79.40;;;21.77;42.31;94538.06;6052800;19;20315;-63
2021/11/13 21:06:36;;;;;;;3.22;2.95;;;18.00;79.90;;;21.77;42.18;94538.06;6058592;19;20366;-62
2021/11/13 21:08:37;;;;;;;4.10;3.25;;;18.10;79.70;;;21.78;42.09;94536.94;6054922;19;20006;-62
2021/11/13 21:10:39;;;;;;;2.83;2.63;;;18.00;79.70;;;21.78;42.03;94536.94;6049916;19;20490;-63
2021/11/13 21:12:40;;;;;;;3.30;3.00;;;18.10;79.80;;;21.78;42.22;94539.66;6064887;19;20144;-63
2021/11/13 21:14:41;;;;;;;3.20;2.90;;;18.00;79.70;;;21.78;42.15;94539.66;6069847;19;20014;-60
2021/11/13 21:16:43;;;;;;;2.90;2.70;;;18.00;79.50;;;21.78;42.37;94536.94;6056424;19;20093;-60
2021/11/13 21:18:45;;;;;;;3.20;2.83;;;18.10;79.50;;;21.77;41.85;94538.84;6066518;19;20010;-60
2021/11/13 21:20:46;;;;;;;2.80;2.60;;;18.00;79.40;;;21.76;42.13;94539.97;6055655;19;20017;-61
2021/11/13 21:22:47;;;;;;;3.92;2.88;;;18.00;79.40;;;21.77;42.03;94528.00;6056463;19;20609;-60
2021/11/13 21:24:50;;;;;;;2.92;2.70;;;18.10;79.30;;;21.77;41.98;94532.63;6068507;19;20487;-60
2021/11/13 21:26:53;;;;;;;2.90;2.70;;;18.00;79.10;;;21.78;41.95;94536.94;6051562;19;20040;-61
2021/11/13 21:28:54;;;;;;;3.08;2.85;;;18.10;79.10;;;21.78;42.06;94531.50;6046454;19;20014;-63
2021/11/13 21:30:55;;;;;;;3.25;2.47;;;18.10;79.20;;;21.77;42.08;94530.72;6070837;19;20010;-63
2021/11/13 21:32:57;;;;;;;3.15;2.95;;;18.10;79.10;;;21.77;42.22;94535.34;6056859;19;20023;-62
2021/11/13 21:34:58;;;;;;;2.47;2.28;;;18.10;79.00;;;21.78;42.10;94528.78;6065407;19;20029;-60
2021/11/13 21:36:59;;;;;;;2.80;2.60;;;18.10;79.10;;;21.78;42.18;94535.00;6070300;19;20002;-61
2021/11/13 21:39:00;;;;;;;2.60;2.40;;;18.10;79.00;;;21.78;41.89;94536.94;6085037;19;20022;-60
2021/11/13 21:41:03;;;;;;;2.45;2.25;;;18.10;79.00;;;21.77;41.84;94535.34;6064448;19;20734;-61
2021/11/13 21:43:04;;;;;;;2.38;2.17;;;18.10;79.00;;;21.79;41.81;94535.81;6079142;19;20092;-60
2021/11/13 21:45:07;;;;;;;2.85;2.65;;;18.10;78.90;;;21.79;41.98;94535.81;6077316;19;20021;-60
2021/11/13 21:47:08;;;;;;;4.00;2.13;;;18.10;79.00;;;21.79;42.11;94530.38;6072112;19;20019;-60
2021/11/13 21:49:09;;;;;;;2.90;2.70;;;18.10;79.00;;;21.78;41.72;94534.22;6061154;19;20085;-60
2021/11/13 21:51:11;;;;;;;2.28;2.17;;;18.00;78.80;;;21.79;41.59;94530.38;6069910;19;20078;-61
2021/11/13 21:53:13;;;;;;;2.50;2.30;;;18.10;78.90;;;21.78;42.08;94523.38;6073314;19;20090;-60
2021/11/13 21:55:21;;;;;;;2.42;2.22;;;18.10;78.80;;;21.78;41.75;94528.78;6061879;19;20481;-61
2021/11/13 21:57:22;;;;;;;2.30;2.10;;;18.00;78.80;;;21.78;41.74;94528.78;6062454;19;20660;-60
2021/11/13 21:59:23;;;;;;;3.67;2.88;;;18.00;78.70;;;21.78;41.69;94528.78;6073088;19;20010;-60
2021/11/13 22:01:24;;;;;;;2.50;2.30;;;18.10;78.70;;;21.76;41.70;94526.41;6042454;19;20019;-61
2021/11/13 22:03:25;;;;;;;3.08;2.22;;;18.00;78.60;;;21.76;41.73;94526.41;6030480;19;20006;-62
2021/11/13 22:05:27;;;;;;;2.05;1.95;;;18.00;78.50;;;21.77;41.54;94521.78;6051901;19;20070;-61
2021/11/13 22:07:28;;;;;;;2.75;2.53;;;18.00;78.60;;;21.75;41.67;94521.31;6049993;19;20018;-61
2021/11/13 22:09:29;;;;;;;3.90;2.70;;;18.00;78.60;;;21.75;41.54;94518.63;6068225;19;20032;-60
2021/11/13 22:11:30;;;;;;;2.38;2.17;;;18.00;78.60;;;21.74;41.69;94519.75;6054309;19;20084;-61
2021/11/13 22:13:34;;;;;;;2.50;2.08;;;18.00;78.70;;;21.73;41.98;94518.94;6050405;19;20079;-60
2021/11/13 22:15:35;;;;;;;2.10;2.00;;;18.00;78.70;;;21.73;41.64;94520.88;6076983;19;20025;-61
2021/11/13 22:17:38;;;;;;;2.45;2.30;;;18.00;78.70;;;21.72;41.48;94520.06;6061203;19;20006;-61
2021/11/13 22:19:39;;;;;;;;;;;18.00;78.60;;;21.71;41.69;94521.19;6041759;19;20055;-61
2021/11/13 22:21:40;;;;;;;2.25;1.85;;;18.00;78.80;;;21.70;41.72;94522.34;6048692;19;19923;-61
2021/11/13 22:23:41;;;;;;;2.20;2.10;;;18.00;78.80;;;21.71;42.04;94528.53;6035010;19;20039;-61
2021/11/13 22:25:46;;;;;;;2.78;2.58;;;18.00;78.90;;;21.70;41.48;94521.53;6047896;19;20006;-61
2021/11/13 22:27:48;;;;;;;2.58;2.38;;;18.00;78.90;;;21.69;41.79;94523.47;6056750;19;20020;-61
2021/11/13 22:29:50;;;;;;;2.42;2.20;;;18.00;78.80;;;21.68;41.90;94527.28;6070666;19;20014;-60
2021/11/13 22:31:51;;;;;;;2.30;2.10;;;17.90;78.70;;;21.68;41.81;94531.94;6073360;19;20887;-61
2021/11/13 22:33:52;;;;;;;2.20;2.10;;;17.90;78.70;;;21.67;41.64;94524.91;6074168;19;20070;-60
2021/11/13 22:35:55;;;;;;;3.45;2.33;;;17.90;78.70;;;21.66;41.87;94528.75;6072120;19;20047;-60
2021/11/13 22:37:56;;;;;;;4.45;2.08;;;17.90;78.90;;;21.65;42.02;94527.19;6070756;19;20018;-60
2021/11/13 22:39:57;;;;;;;2.10;2.00;;;17.90;78.90;;;21.65;41.56;94524.47;6067223;19;20026;-60
2021/11/13 22:41:58;;;;;;;2.65;2.05;;;17.90;78.90;;;21.65;41.80;94527.19;6066758;19;20015;-62
2021/11/13 22:43:58;;;;;;;2.10;1.85;;;17.90;78.90;;;21.64;41.89;94522.88;6062716;19;20509;-61
2021/11/13 22:46:03;;;;;;;2.72;1.77;;;17.90;78.90;;;21.63;41.69;94524.78;6072607;19;20014;-62
2021/11/13 22:48:04;;;;;;;9.10;2.28;;;17.90;79.00;;;21.62;41.53;94517.00;6050607;19;20578;-62
2021/11/13 22:50:08;;;;;;;3.42;2.00;;;17.90;78.90;;;21.62;41.88;94514.28;6038217;19;20013;-62
2021/11/13 22:52:09;;;;;;;2.05;1.83;;;17.90;78.90;;;21.62;41.73;94522.41;6035143;19;20700;-62
2021/11/13 22:54:11;;;;;;;3.35;1.83;;;17.90;78.90;;;21.62;41.89;94525.13;6022602;19;20010;-63
2021/11/13 22:56:13;;;;;;;3.13;2.00;;;17.90;78.90;;;21.61;41.81;94520.81;6063182;19;20031;-62
2021/11/13 22:58:18;;;;;;;2.35;1.88;;;17.90;78.80;;;21.60;41.60;94517.31;6049906;19;20043;-59
2021/11/13 23:00:42;;;;;;;2.78;2.30;;;17.80;78.80;;;21.60;41.95;94522.72;6054038;19;20007;-60
2021/11/13 23:02:43;;;;;;;2.20;1.92;;;17.80;78.90;;;21.56;41.80;94517.19;6067106;19;20450;-61
2021/11/13 23:04:45;;;;;;;1.60;1.50;;;17.80;79.00;;;21.57;41.69;94513.34;6050985;19;20003;-62
2021/11/13 23:06:47;;;;;;;2.17;1.67;;;17.80;79.10;;;21.56;42.03;94510.97;6067493;19;20014;-62
2021/11/13 23:08:49;;;;;;;2.30;1.92;;;17.80;79.30;;;21.55;42.09;94515.59;6079055;19;20018;-61
2021/11/13 23:10:52;;;;;;;2.78;2.03;;;17.90;79.50;;;21.55;41.61;94512.88;6080428;19;20014;-62
2021/11/13 23:12:53;;;;;;;5.93;2.42;;;17.80;79.70;;;21.55;41.76;94510.16;6080369;19;20018;-61
2021/11/13 23:14:55;;;;;;;3.55;2.60;;;17.80;79.40;;;21.54;41.63;94508.56;6086107;19;20770;-61
2021/11/13 23:16:56;;;;;;;2.38;1.90;;;17.80;79.60;;;21.53;42.04;94511.63;6066779;19;20018;-62
2021/11/13 23:18:58;;;;;;;1.70;1.60;;;17.80;79.60;;;21.54;41.97;94513.22;6071109;19;20087;-62
2021/11/13 23:21:00;;;;;;;3.30;2.10;;;17.80;79.60;;;21.51;41.87;94501.13;6065342;19;20523;-63
2021/11/13 23:23:03;;;;;;;2.42;1.90;;;17.80;80.10;;;21.51;42.12;94509.25;6077357;19;20014;-62
2021/11/13 23:25:04;;;;;;;2.00;1.40;;;17.80;80.00;;;21.50;42.02;94501.44;6079352;19;20014;-62
2021/11/13 23:27:09;;;;;;;1.73;1.63;;;17.80;80.10;;;21.49;42.25;94506.06;6083742;19;20010;-60
2021/11/13 23:29:13;;;;;;;3.38;1.90;;;17.80;80.10;;;21.50;42.47;94504.16;6076732;19;20546;-60
2021/11/13 23:31:13;;;;;;;1.95;1.85;;;17.80;80.50;;;21.49;42.31;94500.66;6065435;19;20023;-60
2021/11/13 23:33:15;;;;;;;1.65;1.50;;;17.80;80.20;;;21.49;42.04;94500.66;6060160;19;20011;-60
2021/11/13 23:35:18;;;;;;;2.50;1.98;;;17.80;80.70;;;21.48;42.20;94507.19;6064516;19;20823;-60
2021/11/13 23:37:19;;;;;;;3.08;1.80;;;17.80;81.60;;;21.47;42.49;94502.91;6075771;19;20015;-61
2021/11/13 23:39:20;;;;;;;2.00;1.90;;;17.80;82.10;;;21.46;42.94;94495.91;6072428;19;20046;-60
2021/11/13 23:41:21;;;;;;;1.95;1.80;;;17.80;82.50;;;21.49;42.56;94499.88;6065550;19;20529;-60
2021/11/13 23:43:22;;;;;;;2.63;1.90;;;17.80;82.30;;;21.50;43.04;94499.53;6067555;19;21029;-57
2021/11/13 23:45:30;;;;;;;4.50;1.75;;;17.80;82.50;;;21.52;42.83;94496.47;6060932;19;20112;-57
2021/11/13 23:47:31;;;;;;;1.58;1.48;;;17.80;82.50;;;21.54;43.08;94497.72;6057202;19;20010;-57
2021/11/13 23:49:32;;;;;;;3.63;2.03;;;17.80;82.50;;;21.57;42.55;94504.41;6074291;19;20002;-58
2021/11/13 23:51:33;;;;;;;3.35;2.15;;;17.90;82.80;;;21.60;42.93;94503.72;6070714;19;20014;-57
2021/11/13 23:53:35;;;;;;;1.95;1.85;;;17.80;82.60;;;21.62;43.07;94503.44;6062154;19;20010;-59
2021/11/13 23:55:36;;;;;;;2.70;1.88;;;17.90;82.70;;;21.65;42.62;94505.47;6078712;19;20097;-58
2021/11/13 23:57:38;;;;;;;5.10;1.98;;;17.90;82.80;;;21.67;42.69;94500.50;6064208;19;20010;-58
2021/11/13 23:59:40;;;;;;;2.13;1.77;;;17.90;82.90;;;21.69;42.84;94504.47;6067860;19;20018;-59
